Meteo Giornale » Osservazioni meteo Italia » Falconara

ore: 14:50 - Osservazioni Meteo Falconara
Lat. 43° 37' N Lon. 13° 22' E Alt. 12 metri s.l.m.

poco_nuvoloso Europe/Rome

26 °C

Poco Nuvoloso

Temp. 24 Ore

17 °C

27 °C

Nord

22.2 Km/h

Dew point 20 °C

Umidità 69 %

Visibilità  10 Km

Il sole sorge alle ore 05:22

Il sole tramonta alle ore 20:52

Data e Ora Cielo e Fenomeni T °C DP °C Um. % Pres. hPa Vis. km Vento km/h
Oggi h: 14:50 poco_nuvoloso Poco Nuvoloso 26 20 69 1014 10 N 22.2
Oggi h: 13:50 poco_nuvoloso Poco Nuvoloso 27 18 57 1015 10 N 20.3
Oggi h: 12:50 poco_nuvoloso Poco Nuvoloso 27 17 54 1015 10 N/NO 18.5
Oggi h: 11:50 poco_nuvoloso Poco Nuvoloso 26 18 61 1014 10 N 20.3
Oggi h: 10:50 sereno Sereno 26 18 61 1014 10 N 18.5
Oggi h: 09:50 sereno Sereno 26 20 69 1014 10 N/NO 18.5
Oggi h: 08:50 sereno Sereno 24 18 69 1014 10 NO 14.8
Oggi h: 07:50 sereno Sereno 22 15 64 1014 10 N 3.7
Oggi h: 06:50 sereno Sereno 19 14 72 1013 10 N 3.7
Oggi h: 05:50 sereno Sereno 17 14 82 1013 10 N 3.7
Oggi h: 04:50 sereno Sereno 17 13 77 1013 10 N 3.7
Oggi h: 03:50 sereno Sereno 18 14 77 1013 10 N 5.5
Oggi h: 02:50 sereno Sereno 19 15 77 1013 10 N 5.5
Oggi h: 00:50 sereno Sereno 20 16 77 1013 10 N 5.5
Ieri h: 23:50 sereno Sereno 20 17 82 1013 10 S/SO 7.4
Ieri h: 22:50 sereno Sereno 21 18 82 1013 10 N 3.7
Ieri h: 21:50 sereno Sereno 22 18 78 1013 10 N 3.7
Ieri h: 20:50 sereno Sereno 24 19 73 1012 10 N 5.5
Ieri h: 19:50 sereno Sereno 25 18 65 1012 10 NO 11.1
Ieri h: 18:50 sereno Sereno 26 16 54 1012 10 N/NO 14.8
Ieri h: 17:50 sereno Sereno 26 18 61 1012 10 N/NO 14.8
Ieri h: 16:50 sereno Sereno 26 19 65 1012 10 N/NO 16.7
Ieri h: 15:50 sereno Sereno 27 18 57 1012 10 N/NO 14.8